Time;durP1;ratioP1;P1;durP2;ratioP2;P2;SDS_P1;SDS_P2;PMS_P1;PMS_P2;Temp;Humidity;BMP_temperature;BMP_pressure;BME280_temperature;BME280_humidity;BME280_pressure;Samples;Min_cycle;Max_cycle;Signal;HPM_P1;HPM_P2
2021/07/15 00:02:24;;;;;;;0.30;0.30;;;;;;;;;;4996862;28;20172;-73
2021/07/15 00:04:50;;;;;;;0.30;0.30;;;;;;;;;;4993637;28;20104;-74
2021/07/15 00:07:16;;;;;;;0.30;0.30;;;;;;;;;;4993474;28;20023;-73
2021/07/15 00:09:44;;;;;;;0.30;0.30;;;;;;;;;;4998224;28;20022;-73
2021/07/15 00:12:12;;;;;;;0.30;0.30;;;;;;;;;;5004962;28;20038;-73
2021/07/15 00:14:39;;;;;;;;;;;;;;;;;;4998412;28;20080;-73
2021/07/15 00:17:05;;;;;;;0.30;0.30;;;;;;;;;;5005337;28;20470;-73
2021/07/15 00:19:31;;;;;;;0.30;0.30;;;;;;;;;;5004923;28;20101;-73
2021/07/15 00:21:57;;;;;;;0.30;0.30;;;;;;;;;;5001293;28;20033;-73
2021/07/15 00:24:26;;;;;;;0.40;0.40;;;;;;;;;;5012795;28;20424;-73
2021/07/15 00:26:52;;;;;;;0.30;0.30;;;;;;;;;;5014321;28;20042;-73
2021/07/15 00:29:18;;;;;;;0.30;0.30;;;;;;;;;;5010980;28;20407;-74
2021/07/15 00:31:43;;;;;;;0.40;0.40;;;;;;;;;;5012409;28;20041;-73
2021/07/15 00:34:09;;;;;;;0.38;0.38;;;;;;;;;;5005372;28;20052;-73
2021/07/15 00:36:34;;;;;;;0.30;0.30;;;;;;;;;;4996658;28;20061;-74
2021/07/15 00:39:00;;;;;;;0.40;0.40;;;;;;;;;;5000694;28;20480;-74
2021/07/15 00:41:27;;;;;;;0.35;0.35;;;;;;;;;;5004009;28;20109;-74
2021/07/15 00:43:53;;;;;;;0.25;0.25;;;;;;;;;;4999467;28;20050;-73
2021/07/15 00:46:18;;;;;;;0.28;0.28;;;;;;;;;;5007168;28;20155;-74
2021/07/15 00:48:43;;;;;;;0.30;0.30;;;;;;;;;;4996730;28;20037;-73
2021/07/15 00:51:09;;;;;;;0.30;0.30;;;;;;;;;;4996771;28;20632;-73
2021/07/15 00:53:35;;;;;;;0.30;0.30;;;;;;;;;;4999559;28;20124;-74
2021/07/15 00:56:03;;;;;;;0.30;0.30;;;;;;;;;;4997795;28;20066;-73
2021/07/15 00:58:31;;;;;;;0.30;0.30;;;;;;;;;;4998086;28;20440;-73
2021/07/15 01:00:57;;;;;;;0.30;0.30;;;;;;;;;;5001253;28;20053;-73
2021/07/15 01:03:23;;;;;;;0.30;0.30;;;;;;;;;;4992720;28;20061;-73
2021/07/15 01:05:53;;;;;;;0.30;0.30;;;;;;;;;;5001212;28;20030;-73
2021/07/15 01:08:19;;;;;;;0.30;0.30;;;;;;;;;;4983265;28;20053;-73
2021/07/15 01:10:52;;;;;;;0.20;0.20;;;;;;;;;;4999328;28;20050;-72
2021/07/15 01:13:37;;;;;;;0.25;0.25;;;;;;;;;;5002911;28;20034;-72
2021/07/15 01:16:02;;;;;;;0.30;0.30;;;;;;;;;;4997245;28;20039;-73
2021/07/15 01:18:46;;;;;;;0.20;0.20;;;;;;;;;;4998342;28;20438;-73
2021/07/15 01:21:30;;;;;;;0.30;0.30;;;;;;;;;;4993794;28;20029;-73
2021/07/15 01:24:17;;;;;;;0.30;0.30;;;;;;;;;;4997544;28;20444;-73
2021/07/15 01:26:42;;;;;;;0.22;0.22;;;;;;;;;;4997913;28;20453;-74
2021/07/15 01:29:07;;;;;;;0.30;0.30;;;;;;;;;;4998674;28;20059;-73
2021/07/15 01:31:35;;;;;;;0.40;0.40;;;;;;;;;;4998196;28;20353;-73
2021/07/15 01:34:01;;;;;;;0.40;0.40;;;;;;;;;;4999059;28;20176;-73
2021/07/15 01:36:27;;;;;;;0.30;0.30;;;;;;;;;;5001853;28;20030;-73
2021/07/15 01:38:56;;;;;;;0.20;0.20;;;;;;;;;;5010500;28;20046;-73
2021/07/15 01:41:24;;;;;;;0.30;0.30;;;;;;;;;;5003545;28;20126;-72
2021/07/15 01:43:52;;;;;;;0.22;0.22;;;;;;;;;;5002794;28;20129;-74
2021/07/15 01:46:17;;;;;;;;;;;;;;;;;;5002334;28;20065;-74
2021/07/15 01:48:44;;;;;;;0.20;0.20;;;;;;;;;;5006448;28;20422;-74
2021/07/15 01:51:12;;;;;;;0.30;0.30;;;;;;;;;;5000046;28;20343;-73
2021/07/15 01:53:37;;;;;;;0.38;0.38;;;;;;;;;;5001390;28;20440;-73
2021/07/15 01:56:04;;;;;;;0.30;0.30;;;;;;;;;;5003599;28;20084;-72
2021/07/15 01:58:31;;;;;;;0.30;0.30;;;;;;;;;;5006742;28;20022;-74
2021/07/15 02:01:00;;;;;;;0.20;0.20;;;;;;;;;;4998647;28;20029;-73
2021/07/15 02:03:26;;;;;;;0.30;0.30;;;;;;;;;;4999833;28;20476;-73
2021/07/15 02:05:53;;;;;;;0.30;0.30;;;;;;;;;;5002142;28;20270;-74
2021/07/15 02:08:19;;;;;;;0.38;0.38;;;;;;;;;;5003215;28;20109;-74
2021/07/15 02:10:45;;;;;;;0.20;0.20;;;;;;;;;;5000684;28;20034;-73
2021/07/15 02:13:12;;;;;;;0.20;0.20;;;;;;;;;;5005877;28;20034;-74
2021/07/15 02:15:39;;;;;;;0.30;0.30;;;;;;;;;;5006333;28;20035;-73
2021/07/15 02:18:08;;;;;;;0.30;0.30;;;;;;;;;;4999277;28;20718;-73
2021/07/15 02:20:34;;;;;;;0.30;0.30;;;;;;;;;;5005358;28;20410;-74
2021/07/15 02:22:59;;;;;;;0.38;0.38;;;;;;;;;;5000084;28;20839;-72
2021/07/15 02:25:25;;;;;;;0.35;0.35;;;;;;;;;;4997866;28;20385;-73
2021/07/15 02:27:51;;;;;;;0.20;0.20;;;;;;;;;;4999855;28;20535;-74
2021/07/15 02:30:17;;;;;;;0.20;0.20;;;;;;;;;;5006894;28;20065;-73
2021/07/15 02:32:45;;;;;;;0.30;0.30;;;;;;;;;;4996026;28;20108;-73
2021/07/15 02:35:11;;;;;;;0.30;0.30;;;;;;;;;;5004318;28;20033;-74
2021/07/15 02:37:39;;;;;;;0.32;0.32;;;;;;;;;;5008860;28;20037;-74
2021/07/15 02:40:09;;;;;;;0.30;0.30;;;;;;;;;;4999607;28;20030;-73
2021/07/15 02:42:34;;;;;;;0.30;0.30;;;;;;;;;;5005765;28;20030;-73
2021/07/15 02:45:00;;;;;;;0.20;0.20;;;;;;;;;;5002991;28;20034;-73
2021/07/15 02:47:31;;;;;;;0.20;0.20;;;;;;;;;;5006721;28;20060;-73
2021/07/15 02:49:56;;;;;;;0.28;0.28;;;;;;;;;;5000849;28;20026;-73
2021/07/15 02:52:21;;;;;;;0.20;0.20;;;;;;;;;;5000034;28;20037;-73
2021/07/15 02:54:47;;;;;;;0.20;0.20;;;;;;;;;;4996714;28;20393;-73
2021/07/15 02:57:31;;;;;;;0.20;0.20;;;;;;;;;;5002190;28;20062;-73
2021/07/15 03:00:08;;;;;;;0.30;0.30;;;;;;;;;;4999352;28;20584;-73
2021/07/15 03:02:55;;;;;;;0.20;0.20;;;;;;;;;;4997930;28;20412;-73
2021/07/15 03:05:26;;;;;;;0.20;0.20;;;;;;;;;;5005477;28;20133;-73
2021/07/15 03:07:54;;;;;;;0.20;0.20;;;;;;;;;;4997526;28;20034;-73
2021/07/15 03:10:20;;;;;;;0.20;0.20;;;;;;;;;;4997241;28;20385;-73
2021/07/15 03:12:46;;;;;;;0.20;0.20;;;;;;;;;;4997794;28;20064;-74
2021/07/15 03:15:11;;;;;;;0.30;0.30;;;;;;;;;;5023272;28;20029;-73
2021/07/15 03:17:38;;;;;;;0.30;0.30;;;;;;;;;;5008033;28;20700;-73
2021/07/15 03:20:10;;;;;;;0.20;0.20;;;;;;;;;;4988889;28;20396;-73
2021/07/15 03:22:37;;;;;;;0.20;0.20;;;;;;;;;;4997646;28;20038;-73
2021/07/15 03:25:05;;;;;;;0.30;0.30;;;;;;;;;;4998775;28;20037;-73
2021/07/15 03:27:33;;;;;;;0.20;0.20;;;;;;;;;;4998268;28;20500;-73
2021/07/15 03:30:00;;;;;;;0.20;0.20;;;;;;;;;;5007789;28;20030;-74
2021/07/15 03:32:26;;;;;;;0.20;0.20;;;;;;;;;;4998263;28;20260;-73
2021/07/15 03:34:52;;;;;;;0.20;0.20;;;;;;;;;;5001941;28;20034;-73
2021/07/15 03:37:18;;;;;;;0.30;0.30;;;;;;;;;;5005102;28;20027;-73
2021/07/15 03:39:46;;;;;;;0.30;0.30;;;;;;;;;;4998277;28;20034;-73
2021/07/15 03:42:11;;;;;;;0.30;0.30;;;;;;;;;;5006083;28;20056;-73
2021/07/15 03:44:38;;;;;;;0.30;0.30;;;;;;;;;;4998163;28;20034;-73
2021/07/15 03:47:04;;;;;;;0.30;0.30;;;;;;;;;;4999354;28;20075;-74
2021/07/15 03:49:30;;;;;;;0.20;0.20;;;;;;;;;;5005349;28;20026;-74
2021/07/15 03:51:55;;;;;;;0.30;0.30;;;;;;;;;;4986374;28;20022;-73
2021/07/15 03:54:22;;;;;;;0.30;0.30;;;;;;;;;;4998828;28;20551;-73
2021/07/15 03:56:48;;;;;;;0.30;0.30;;;;;;;;;;4999426;28;20080;-73
2021/07/15 03:59:14;;;;;;;0.20;0.20;;;;;;;;;;5014088;28;20523;-74
2021/07/15 04:01:40;;;;;;;0.20;0.20;;;;;;;;;;4998152;28;20060;-73
2021/07/15 04:04:06;;;;;;;0.25;0.25;;;;;;;;;;4999649;28;20455;-73
2021/07/15 04:06:32;;;;;;;0.30;0.30;;;;;;;;;;5006044;28;20038;-73
2021/07/15 04:08:59;;;;;;;0.20;0.20;;;;;;;;;;5005918;28;20042;-74
2021/07/15 04:11:25;;;;;;;0.30;0.30;;;;;;;;;;5005478;28;20531;-73
2021/07/15 04:13:51;;;;;;;0.30;0.30;;;;;;;;;;4985064;28;20169;-73
2021/07/15 04:16:25;;;;;;;0.20;0.20;;;;;;;;;;4986281;28;20037;-73
2021/07/15 04:18:55;;;;;;;0.30;0.30;;;;;;;;;;4997335;28;20030;-73
2021/07/15 04:21:21;;;;;;;0.20;0.20;;;;;;;;;;5005741;28;20483;-73
2021/07/15 04:23:47;;;;;;;0.20;0.20;;;;;;;;;;4998871;28;20045;-74
2021/07/15 04:26:13;;;;;;;0.40;0.40;;;;;;;;;;4988572;28;20088;-73
2021/07/15 04:28:39;;;;;;;0.30;0.30;;;;;;;;;;5003309;28;20688;-73
2021/07/15 04:31:10;;;;;;;0.30;0.30;;;;;;;;;;4998433;28;20065;-73
2021/07/15 04:33:36;;;;;;;0.40;0.40;;;;;;;;;;4980492;28;20030;-73
2021/07/15 04:36:01;;;;;;;0.30;0.30;;;;;;;;;;5006352;28;20064;-74
2021/07/15 04:38:27;;;;;;;0.30;0.30;;;;;;;;;;4993629;28;20145;-74
2021/07/15 04:40:54;;;;;;;0.30;0.30;;;;;;;;;;4996937;28;20049;-73
2021/07/15 04:43:22;;;;;;;0.30;0.30;;;;;;;;;;4999747;28;20030;-74
2021/07/15 04:45:48;;;;;;;0.30;0.30;;;;;;;;;;4997557;28;20488;-74
2021/07/15 04:48:15;;;;;;;0.30;0.30;;;;;;;;;;4987948;28;20044;-73
2021/07/15 04:50:41;;;;;;;0.30;0.30;;;;;;;;;;5000690;28;20118;-73
2021/07/15 04:53:08;;;;;;;0.20;0.20;;;;;;;;;;5015379;28;20105;-74
2021/07/15 04:55:33;;;;;;;0.20;0.20;;;;;;;;;;5007834;28;20034;-73
2021/07/15 04:58:00;;;;;;;0.20;0.20;;;;;;;;;;5009779;28;20096;-73
2021/07/15 05:00:26;;;;;;;0.30;0.30;;;;;;;;;;5004094;28;20033;-73
2021/07/15 05:03:10;;;;;;;0.22;0.22;;;;;;;;;;5002428;28;20034;-74
2021/07/15 05:05:36;;;;;;;0.28;0.28;;;;;;;;;;4997135;28;20499;-74
2021/07/15 05:08:01;;;;;;;0.20;0.20;;;;;;;;;;4999543;28;20104;-74
2021/07/15 05:10:26;;;;;;;0.20;0.20;;;;;;;;;;5017291;28;20884;-73
2021/07/15 05:12:54;;;;;;;0.20;0.20;;;;;;;;;;4999562;28;20077;-74
2021/07/15 05:15:20;;;;;;;0.20;0.20;;;;;;;;;;5001484;28;20080;-74
2021/07/15 05:17:45;;;;;;;0.30;0.30;;;;;;;;;;5004284;28;20042;-74
2021/07/15 05:20:10;;;;;;;0.20;0.20;;;;;;;;;;5004567;28;20034;-74
2021/07/15 05:22:36;;;;;;;0.25;0.25;;;;;;;;;;4999490;28;20049;-73
2021/07/15 05:25:03;;;;;;;0.20;0.20;;;;;;;;;;4981324;28;20510;-74
2021/07/15 05:27:30;;;;;;;0.28;0.28;;;;;;;;;;4996955;28;20038;-73
2021/07/15 05:29:55;;;;;;;0.20;0.20;;;;;;;;;;5005985;28;20049;-73
2021/07/15 05:32:20;;;;;;;0.20;0.20;;;;;;;;;;4995517;28;20600;-74
2021/07/15 05:34:48;;;;;;;0.20;0.20;;;;;;;;;;5000529;28;20018;-73
2021/07/15 05:37:13;;;;;;;0.30;0.30;;;;;;;;;;5012047;28;20030;-73
2021/07/15 05:39:39;;;;;;;0.20;0.20;;;;;;;;;;4998387;28;20018;-73
2021/07/15 05:42:04;;;;;;;0.20;0.20;;;;;;;;;;5004058;28;20113;-74
2021/07/15 05:44:30;;;;;;;0.20;0.20;;;;;;;;;;5002332;28;20041;-73
2021/07/15 05:46:55;;;;;;;0.30;0.30;;;;;;;;;;5000649;28;20022;-73
2021/07/15 05:49:20;;;;;;;0.30;0.30;;;;;;;;;;4996027;28;20736;-74
2021/07/15 05:51:49;;;;;;;0.20;0.20;;;;;;;;;;5003553;28;20399;-73
2021/07/15 05:54:15;;;;;;;0.30;0.30;;;;;;;;;;5003113;28;20030;-73
2021/07/15 05:56:41;;;;;;;0.20;0.20;;;;;;;;;;4996126;28;20041;-77
2021/07/15 05:59:09;;;;;;;0.20;0.20;;;;;;;;;;5003260;28;20129;-76
2021/07/15 06:01:37;;;;;;;0.30;0.30;;;;;;;;;;4983432;28;20088;-77
2021/07/15 06:04:02;;;;;;;0.25;0.25;;;;;;;;;;4997702;28;20034;-75
2021/07/15 06:06:28;;;;;;;0.22;0.22;;;;;;;;;;4997944;28;20029;-75
2021/07/15 06:08:53;;;;;;;0.20;0.20;;;;;;;;;;5000022;28;20026;-75
2021/07/15 06:11:19;;;;;;;0.20;0.20;;;;;;;;;;5003751;28;20026;-75
2021/07/15 06:13:45;;;;;;;0.30;0.30;;;;;;;;;;5005654;28;20034;-77
2021/07/15 06:16:10;;;;;;;0.28;0.28;;;;;;;;;;4999097;28;20042;-75
2021/07/15 06:18:35;;;;;;;0.30;0.30;;;;;;;;;;4999388;28;20054;-77
2021/07/15 06:21:01;;;;;;;0.30;0.30;;;;;;;;;;5003811;28;20084;-77
2021/07/15 06:23:26;;;;;;;0.20;0.20;;;;;;;;;;5001243;28;20026;-76
2021/07/15 06:25:54;;;;;;;0.30;0.30;;;;;;;;;;4988636;28;20018;-77
2021/07/15 06:28:19;;;;;;;0.20;0.20;;;;;;;;;;5008802;28;20486;-74
2021/07/15 06:30:45;;;;;;;0.20;0.20;;;;;;;;;;5012276;28;20057;-75
2021/07/15 06:33:10;;;;;;;0.30;0.30;;;;;;;;;;5005542;28;20479;-76
2021/07/15 06:35:40;;;;;;;0.22;0.22;;;;;;;;;;5003816;28;20026;-75
2021/07/15 06:38:05;;;;;;;0.25;0.25;;;;;;;;;;5001339;28;20674;-74
2021/07/15 06:40:31;;;;;;;0.30;0.30;;;;;;;;;;5005348;28;20049;-75
2021/07/15 06:42:59;;;;;;;0.30;0.30;;;;;;;;;;5009871;28;20113;-75
2021/07/15 06:45:24;;;;;;;0.20;0.20;;;;;;;;;;5007977;28;20097;-75
2021/07/15 06:47:49;;;;;;;0.20;0.20;;;;;;;;;;5003480;28;20219;-74
2021/07/15 06:50:15;;;;;;;0.30;0.30;;;;;;;;;;5003534;28;20053;-75
2021/07/15 06:52:42;;;;;;;0.20;0.20;;;;;;;;;;5004113;28;20033;-75
2021/07/15 06:55:15;;;;;;;0.20;0.20;;;;;;;;;;5003951;28;20180;-74
2021/07/15 06:57:40;;;;;;;0.20;0.20;;;;;;;;;;5002625;28;20115;-74
2021/07/15 07:00:08;;;;;;;0.20;0.20;;;;;;;;;;4999461;28;20057;-75
2021/07/15 07:02:36;;;;;;;0.20;0.20;;;;;;;;;;4984828;28;20041;-74
2021/07/15 07:05:07;;;;;;;0.20;0.20;;;;;;;;;;5006223;28;20034;-74
2021/07/15 07:07:35;;;;;;;0.20;0.20;;;;;;;;;;4989486;28;20297;-77
2021/07/15 07:10:00;;;;;;;0.20;0.20;;;;;;;;;;5002107;28;20093;-76
2021/07/15 07:12:25;;;;;;;0.20;0.20;;;;;;;;;;5006792;28;20034;-77
2021/07/15 07:14:51;;;;;;;0.10;0.10;;;;;;;;;;4991695;28;20152;-77
2021/07/15 07:17:16;;;;;;;0.20;0.20;;;;;;;;;;5005983;28;20027;-77
2021/07/15 07:19:41;;;;;;;0.20;0.20;;;;;;;;;;4988498;28;20038;-78
2021/07/15 07:22:07;;;;;;;0.17;0.17;;;;;;;;;;5000620;28;20030;-74
2021/07/15 07:24:35;;;;;;;0.20;0.20;;;;;;;;;;5004167;28;20030;-74
2021/07/15 07:27:00;;;;;;;0.20;0.20;;;;;;;;;;4990120;28;20034;-76
2021/07/15 07:29:25;;;;;;;0.10;0.10;;;;;;;;;;4984858;28;20250;-77
2021/07/15 07:31:53;;;;;;;0.20;0.20;;;;;;;;;;4990690;28;20053;-75
2021/07/15 07:34:18;;;;;;;0.10;0.10;;;;;;;;;;4992773;28;20427;-75
2021/07/15 07:36:44;;;;;;;0.10;0.10;;;;;;;;;;4990915;28;20069;-75
2021/07/15 07:39:09;;;;;;;0.20;0.20;;;;;;;;;;5005226;28;20033;-75
2021/07/15 07:41:35;;;;;;;0.20;0.20;;;;;;;;;;4994542;28;20408;-76
2021/07/15 07:44:00;;;;;;;0.20;0.20;;;;;;;;;;5004062;28;20096;-76
2021/07/15 07:46:26;;;;;;;0.20;0.20;;;;;;;;;;4979132;28;20049;-76
2021/07/15 07:48:51;;;;;;;0.20;0.20;;;;;;;;;;4986638;28;20034;-76
2021/07/15 07:51:19;;;;;;;0.20;0.20;;;;;;;;;;4986351;28;20661;-76
2021/07/15 07:53:45;;;;;;;0.20;0.20;;;;;;;;;;4969739;28;20151;-76
2021/07/15 07:56:10;;;;;;;0.13;0.13;;;;;;;;;;4973931;28;20781;-76
2021/07/15 07:58:38;;;;;;;0.10;0.10;;;;;;;;;;4976596;28;20038;-77
2021/07/15 08:01:04;;;;;;;0.17;0.17;;;;;;;;;;4990740;28;20156;-76
2021/07/15 08:03:29;;;;;;;0.20;0.20;;;;;;;;;;4989796;28;20434;-76
2021/07/15 08:05:55;;;;;;;0.20;0.20;;;;;;;;;;4981961;28;20068;-77
2021/07/15 08:08:21;;;;;;;0.10;0.10;;;;;;;;;;4983201;28;20109;-77
2021/07/15 08:10:47;;;;;;;0.20;0.20;;;;;;;;;;4989963;28;20054;-77
2021/07/15 08:13:13;;;;;;;0.20;0.20;;;;;;;;;;4994699;28;20116;-77
2021/07/15 08:15:38;;;;;;;0.10;0.10;;;;;;;;;;4987228;28;20125;-77
2021/07/15 08:18:04;;;;;;;0.10;0.10;;;;;;;;;;4993642;28;21014;-76
2021/07/15 08:20:33;;;;;;;0.10;0.10;;;;;;;;;;4983395;28;20119;-79
2021/07/15 08:22:58;;;;;;;0.10;0.10;;;;;;;;;;4984320;28;20088;-76
2021/07/15 08:25:24;;;;;;;0.10;0.10;;;;;;;;;;4991618;28;20385;-78
2021/07/15 08:27:49;;;;;;;0.10;0.10;;;;;;;;;;4990883;28;20088;-77
2021/07/15 08:30:15;;;;;;;0.13;0.13;;;;;;;;;;4984758;28;20057;-76
2021/07/15 08:32:41;;;;;;;0.20;0.20;;;;;;;;;;4989884;28;20030;-76
2021/07/15 08:35:09;;;;;;;0.10;0.10;;;;;;;;;;4991216;28;20057;-77
2021/07/15 08:37:34;;;;;;;0.10;0.10;;;;;;;;;;4984145;28;20725;-77
2021/07/15 08:40:00;;;;;;;0.10;0.10;;;;;;;;;;4976735;28;20084;-77
2021/07/15 08:42:26;;;;;;;0.10;0.10;;;;;;;;;;4992187;28;20038;-76
2021/07/15 08:44:52;;;;;;;0.10;0.10;;;;;;;;;;4971141;28;20037;-77
2021/07/15 08:47:18;;;;;;;0.10;0.10;;;;;;;;;;4984359;28;20116;-78
2021/07/15 08:49:44;;;;;;;0.17;0.17;;;;;;;;;;4987344;28;21623;-77
2021/07/15 08:52:12;;;;;;;0.10;0.10;;;;;;;;;;4979370;28;20037;-77
2021/07/15 08:54:53;;;;;;;0.10;0.10;;;;;;;;;;4983431;28;20041;-76
2021/07/15 08:57:18;;;;;;;0.10;0.10;;;;;;;;;;4970792;28;20072;-76
2021/07/15 08:59:43;;;;;;;0.10;0.10;;;;;;;;;;4968120;28;20570;-76
2021/07/15 09:02:14;;;;;;;0.10;0.10;;;;;;;;;;4969791;28;20103;-75
2021/07/15 09:04:39;;;;;;;0.10;0.10;;;;;;;;;;4988733;28;20050;-75
2021/07/15 09:07:05;;;;;;;0.10;0.10;;;;;;;;;;4978732;28;20041;-76
2021/07/15 09:09:32;;;;;;;0.10;0.10;;;;;;;;;;4978606;28;20033;-75
2021/07/15 09:11:58;;;;;;;0.10;0.10;;;;;;;;;;4975603;28;20419;-77
2021/07/15 09:14:23;;;;;;;0.10;0.10;;;;;;;;;;4988008;28;20956;-76
2021/07/15 09:16:52;;;;;;;0.10;0.10;;;;;;;;;;4974407;28;20064;-75
2021/07/15 09:19:18;;;;;;;0.10;0.10;;;;;;;;;;4958340;28;20031;-75
2021/07/15 09:21:44;;;;;;;0.20;0.20;;;;;;;;;;4974455;28;20125;-76
2021/07/15 09:24:31;;;;;;;0.10;0.10;;;;;;;;;;4979466;28;20032;-75
2021/07/15 09:26:56;;;;;;;0.10;0.10;;;;;;;;;;4977864;28;20065;-75
2021/07/15 09:29:22;;;;;;;0.10;0.10;;;;;;;;;;4974594;28;20140;-76
2021/07/15 09:31:54;;;;;;;0.10;0.10;;;;;;;;;;4962833;28;20033;-76
2021/07/15 09:34:23;;;;;;;0.20;0.20;;;;;;;;;;4975266;28;20057;-75
2021/07/15 09:36:50;;;;;;;0.20;0.20;;;;;;;;;;4976592;28;20045;-76
2021/07/15 09:39:16;;;;;;;0.13;0.13;;;;;;;;;;4961046;28;20096;-75
2021/07/15 09:41:42;;;;;;;0.20;0.20;;;;;;;;;;4974263;28;20064;-77
2021/07/15 09:44:09;;;;;;;0.10;0.10;;;;;;;;;;4970166;28;20647;-76
2021/07/15 09:46:36;;;;;;;0.10;0.10;;;;;;;;;;4974985;28;20069;-76
2021/07/15 09:49:02;;;;;;;0.15;0.15;;;;;;;;;;4963669;28;20037;-76
2021/07/15 09:51:36;;;;;;;0.35;0.35;;;;;;;;;;4971231;28;20030;-75
2021/07/15 09:54:02;;;;;;;0.20;0.20;;;;;;;;;;4972657;28;21590;-74
2021/07/15 09:56:28;;;;;;;0.10;0.10;;;;;;;;;;5009414;28;20065;-73
2021/07/15 09:58:57;;;;;;;0.10;0.10;;;;;;;;;;4977128;28;20061;-72
2021/07/15 10:01:24;;;;;;;0.10;0.10;;;;;;;;;;4994271;28;20114;-72
2021/07/15 10:03:54;;;;;;;0.10;0.10;;;;;;;;;;5003874;28;20065;-72
2021/07/15 10:06:20;;;;;;;0.10;0.10;;;;;;;;;;5004284;28;20040;-74
2021/07/15 10:08:50;;;;;;;0.10;0.10;;;;;;;;;;4994838;28;20026;-73
2021/07/15 10:11:26;;;;;;;0.10;0.10;;;;;;;;;;4971642;28;20115;-73
2021/07/15 10:13:57;;;;;;;0.10;0.10;;;;;;;;;;4984968;28;20038;-72
2021/07/15 10:16:26;;;;;;;0.10;0.10;;;;;;;;;;4981788;28;20085;-73
2021/07/15 10:18:51;;;;;;;0.10;0.10;;;;;;;;;;4971078;28;20186;-72
2021/07/15 10:21:22;;;;;;;0.10;0.10;;;;;;;;;;4968717;28;20037;-73
2021/07/15 10:23:48;;;;;;;0.10;0.10;;;;;;;;;;4972011;28;20038;-72
2021/07/15 10:26:14;;;;;;;0.10;0.10;;;;;;;;;;4974089;28;20026;-73
2021/07/15 10:28:46;;;;;;;0.10;0.10;;;;;;;;;;4956920;28;20654;-73
2021/07/15 10:31:12;;;;;;;0.10;0.10;;;;;;;;;;4983987;28;20184;-73
2021/07/15 10:33:38;;;;;;;0.20;0.10;;;;;;;;;;4998237;28;20018;-73
2021/07/15 10:36:04;;;;;;;0.10;0.10;;;;;;;;;;5000378;28;20080;-74
2021/07/15 10:38:32;;;;;;;0.10;0.10;;;;;;;;;;4997610;28;20030;-74
2021/07/15 10:40:58;;;;;;;0.10;0.10;;;;;;;;;;4973939;28;20042;-72
2021/07/15 10:43:24;;;;;;;0.10;0.10;;;;;;;;;;4975480;28;20944;-72
2021/07/15 10:45:51;;;;;;;0.00;0.00;;;;;;;;;;4978650;28;20053;-72
2021/07/15 10:48:17;;;;;;;0.05;0.05;;;;;;;;;;4981802;28;20069;-72
2021/07/15 10:50:43;;;;;;;0.00;0.00;;;;;;;;;;4985470;28;20030;-72
2021/07/15 10:53:14;;;;;;;0.10;0.10;;;;;;;;;;4977844;28;20476;-75
2021/07/15 10:55:40;;;;;;;0.13;0.13;;;;;;;;;;4995616;28;20026;-75
2021/07/15 10:58:05;;;;;;;0.10;0.10;;;;;;;;;;4986593;28;20121;-75
2021/07/15 11:00:30;;;;;;;0.10;0.10;;;;;;;;;;4989676;28;20432;-75
2021/07/15 11:03:15;;;;;;;0.10;0.10;;;;;;;;;;4988339;28;21482;-77
2021/07/15 11:05:51;;;;;;;0.10;0.10;;;;;;;;;;4987818;28;20046;-73
2021/07/15 11:08:17;;;;;;;0.10;0.10;;;;;;;;;;4997645;28;20038;-75
2021/07/15 11:10:42;;;;;;;0.10;0.10;;;;;;;;;;4980233;28;20046;-75
2021/07/15 11:13:09;;;;;;;0.10;0.10;;;;;;;;;;4992637;28;20034;-75
2021/07/15 11:15:43;;;;;;;0.10;0.10;;;;;;;;;;5004279;28;20022;-75
2021/07/15 11:18:09;;;;;;;0.10;0.10;;;;;;;;;;4991573;28;20030;-75
2021/07/15 11:20:34;;;;;;;0.10;0.10;;;;;;;;;;4992729;28;20175;-75
2021/07/15 11:23:09;;;;;;;0.10;0.10;;;;;;;;;;4997708;28;20030;-77
2021/07/15 11:25:36;;;;;;;0.17;0.17;;;;;;;;;;4984943;28;20030;-76
2021/07/15 11:28:10;;;;;;;0.20;0.20;;;;;;;;;;4994466;28;20040;-75
2021/07/15 11:30:36;;;;;;;0.20;0.10;;;;;;;;;;5008346;28;20034;-76
2021/07/15 11:33:20;;;;;;;0.10;0.10;;;;;;;;;;4992771;28;20057;-75
2021/07/15 11:36:04;;;;;;;0.10;0.10;;;;;;;;;;4993370;28;20030;-75
2021/07/15 11:38:35;;;;;;;0.10;0.10;;;;;;;;;;4962420;28;20097;-75
2021/07/15 11:41:04;;;;;;;0.20;0.10;;;;;;;;;;4982510;28;20045;-75
2021/07/15 11:43:35;;;;;;;0.10;0.10;;;;;;;;;;4989410;28;20028;-75
2021/07/15 11:46:07;;;;;;;0.00;0.00;;;;;;;;;;5000264;28;20038;-75
2021/07/15 11:48:42;;;;;;;0.10;0.10;;;;;;;;;;4988486;28;20029;-75
2021/07/15 11:51:30;;;;;;;0.10;0.10;;;;;;;;;;4989229;28;20540;-76
2021/07/15 11:54:15;;;;;;;0.10;0.10;;;;;;;;;;4987940;28;21351;-77
2021/07/15 11:56:41;;;;;;;0.00;0.00;;;;;;;;;;4976389;28;21320;-76
2021/07/15 11:59:06;;;;;;;0.10;0.10;;;;;;;;;;4983678;28;20022;-76
2021/07/15 12:01:33;;;;;;;0.03;0.03;;;;;;;;;;4992853;28;20040;-78
2021/07/15 12:04:01;;;;;;;0.10;0.10;;;;;;;;;;4981852;28;20493;-76
2021/07/15 12:06:30;;;;;;;0.10;0.10;;;;;;;;;;4989251;28;20166;-76
2021/07/15 12:09:07;;;;;;;0.10;0.10;;;;;;;;;;4992768;28;20034;-77
2021/07/15 12:11:33;;;;;;;0.00;0.00;;;;;;;;;;4979254;28;21578;-76
2021/07/15 12:14:00;;;;;;;0.10;0.10;;;;;;;;;;4990943;28;20101;-75
2021/07/15 12:16:25;;;;;;;;;;;;;;;;;;4990661;28;20034;-76
2021/07/15 12:18:51;;;;;;;0.10;0.10;;;;;;;;;;4967406;28;19918;-76
2021/07/15 12:21:22;;;;;;;0.10;0.10;;;;;;;;;;4988431;28;20033;-76
2021/07/15 12:23:50;;;;;;;0.10;0.10;;;;;;;;;;4983948;28;20033;-76
2021/07/15 12:26:17;;;;;;;0.00;0.00;;;;;;;;;;4976428;28;20041;-76
2021/07/15 12:28:46;;;;;;;0.00;0.00;;;;;;;;;;4977828;28;20042;-76
2021/07/15 12:31:12;;;;;;;0.03;0.03;;;;;;;;;;4965621;28;20389;-76
2021/07/15 12:33:39;;;;;;;0.00;0.00;;;;;;;;;;4983161;28;20026;-76
2021/07/15 12:36:24;;;;;;;0.05;0.05;;;;;;;;;;4985267;28;20101;-76
2021/07/15 12:38:56;;;;;;;0.00;0.00;;;;;;;;;;4997019;28;20103;-76
2021/07/15 12:41:22;;;;;;;0.00;0.00;;;;;;;;;;4997973;28;20034;-76
2021/07/15 12:43:55;;;;;;;0.00;0.00;;;;;;;;;;4972745;28;20104;-77
2021/07/15 12:46:28;;;;;;;0.03;0.03;;;;;;;;;;4991248;28;20478;-77
2021/07/15 12:48:58;;;;;;;0.00;0.00;;;;;;;;;;4993306;28;20038;-76
2021/07/15 12:51:25;;;;;;;0.10;0.10;;;;;;;;;;4989161;28;20050;-76
2021/07/15 12:53:54;;;;;;;0.00;0.00;;;;;;;;;;4988101;28;20077;-76
2021/07/15 12:56:23;;;;;;;0.32;0.10;;;;;;;;;;4987550;28;20046;-76
2021/07/15 12:59:18;;;;;;;0.00;0.00;;;;;;;;;;4990113;28;20092;-75
2021/07/15 13:01:46;;;;;;;0.00;0.00;;;;;;;;;;4952475;28;20069;-76
2021/07/15 13:04:15;;;;;;;0.00;0.00;;;;;;;;;;4976653;28;20028;-76
2021/07/15 13:06:45;;;;;;;0.10;0.10;;;;;;;;;;4986553;28;20053;-76
2021/07/15 13:14:32;;;;;;;0.00;0.00;;;;;;;;;;4976048;28;26702;-76
2021/07/15 13:16:57;;;;;;;0.13;0.13;;;;;;;;;;4986935;28;20051;-76
2021/07/15 13:19:26;;;;;;;0.10;0.10;;;;;;;;;;4969492;28;20136;-76
2021/07/15 13:21:54;;;;;;;0.10;0.10;;;;;;;;;;4950262;28;20089;-76
2021/07/15 13:24:27;;;;;;;0.10;0.10;;;;;;;;;;4973328;28;20109;-76
2021/07/15 13:26:55;;;;;;;0.00;0.00;;;;;;;;;;4998996;28;20038;-76
2021/07/15 13:29:20;;;;;;;0.10;0.10;;;;;;;;;;4998608;28;20451;-76
2021/07/15 13:31:46;;;;;;;0.00;0.00;;;;;;;;;;4991555;28;20026;-77
2021/07/15 13:34:11;;;;;;;0.10;0.10;;;;;;;;;;4997683;28;20637;-77
2021/07/15 13:36:54;;;;;;;0.10;0.10;;;;;;;;;;4999246;28;20140;-76
2021/07/15 13:39:35;;;;;;;0.10;0.10;;;;;;;;;;4993416;28;20030;-76
2021/07/15 13:42:01;;;;;;;0.10;0.10;;;;;;;;;;4984360;28;20480;-76
2021/07/15 13:44:26;;;;;;;0.10;0.10;;;;;;;;;;4995059;28;20033;-77
2021/07/15 13:47:00;;;;;;;0.10;0.10;;;;;;;;;;5003757;28;20627;-77
2021/07/15 13:49:25;;;;;;;0.10;0.10;;;;;;;;;;5000081;28;20546;-76
2021/07/15 13:52:01;;;;;;;0.07;0.07;;;;;;;;;;5009064;28;20034;-76
2021/07/15 13:54:26;;;;;;;0.22;0.22;;;;;;;;;;4976169;28;20038;-76
2021/07/15 13:56:52;;;;;;;0.07;0.07;;;;;;;;;;5001400;28;20074;-76
2021/07/15 13:59:17;;;;;;;0.10;0.10;;;;;;;;;;4998945;28;20038;-76
2021/07/15 14:01:42;;;;;;;0.10;0.10;;;;;;;;;;5002434;28;20038;-77
2021/07/15 14:04:15;;;;;;;0.10;0.10;;;;;;;;;;5000325;28;20095;-77
2021/07/15 14:06:44;;;;;;;0.00;0.00;;;;;;;;;;4981867;28;20034;-76
2021/07/15 14:09:09;;;;;;;;;;;;;;;;;;4984771;28;20044;-77
2021/07/15 14:11:35;;;;;;;0.20;0.20;;;;;;;;;;4979755;28;19913;-77
2021/07/15 14:14:01;;;;;;;0.30;0.20;;;;;;;;;;5003009;28;20324;-77
2021/07/15 14:16:26;;;;;;;;;;;;;;;;;;4999515;28;20428;-77
2021/07/15 14:19:01;;;;;;;0.22;0.03;;;;;;;;;;4982128;28;20096;-76
2021/07/15 14:21:30;;;;;;;0.00;0.00;;;;;;;;;;4998322;28;20030;-76
2021/07/15 14:23:55;;;;;;;0.00;0.00;;;;;;;;;;4993980;28;20034;-77
2021/07/15 14:26:20;;;;;;;0.00;0.00;;;;;;;;;;4990114;28;20045;-77
2021/07/15 14:28:46;;;;;;;0.00;0.00;;;;;;;;;;5008659;28;20399;-77
2021/07/15 14:31:14;;;;;;;0.00;0.00;;;;;;;;;;5007905;28;20503;-77
2021/07/15 14:33:39;;;;;;;0.00;0.00;;;;;;;;;;5007374;28;20033;-77
2021/07/15 14:36:05;;;;;;;0.00;0.00;;;;;;;;;;4991212;28;20108;-76
2021/07/15 14:38:31;;;;;;;0.00;0.00;;;;;;;;;;4994595;28;20380;-77
2021/07/15 14:40:57;;;;;;;0.00;0.00;;;;;;;;;;4977363;28;20560;-77
2021/07/15 14:43:22;;;;;;;0.00;0.00;;;;;;;;;;5001968;28;20039;-77
2021/07/15 14:45:47;;;;;;;0.00;0.00;;;;;;;;;;5007322;28;20037;-77
2021/07/15 14:48:15;;;;;;;0.10;0.10;;;;;;;;;;5008965;28;20053;-77
2021/07/15 14:50:41;;;;;;;0.00;0.00;;;;;;;;;;4996874;28;20034;-76
2021/07/15 14:53:07;;;;;;;0.00;0.00;;;;;;;;;;5015617;28;20081;-77
2021/07/15 14:55:32;;;;;;;0.00;0.00;;;;;;;;;;4984506;28;20038;-77